Carcross, Canada
Current Conditions -  °F | °C
As of 3:00 PM on Friday 21 Nov 2014 (Local Time) from CYXY Reporting Station
Broken Clouds Broken Clouds  
Wind Chill: 19°   Ceiling: 12000
Heat Index: 19°   Visibility: 8mi
Dew Point: 16°   Wind: 2mph
Humidity: 86%   Direction: NA
Pressure: 29.16"   Gusts: NA
Location:  60.18°N, 134.72°W
Report Text: CYXY 212300Z VRB02KT 8SM FEW006 SCT018 SCT070 BKN120 BKN190 M07/M09 A2916 RMK SF1ST2AC1AC2AC1 INTMT -SN SLP919
Loading
Personal Weather Stations






























Interactive Weather Map New forecast layout! Learn more

10-Day Weather Forecast

Advertisements
Track Severe Weather on mobile